Time;durP1;ratioP1;P1;durP2;ratioP2;P2;SDS_P1;SDS_P2;PMS_P1;PMS_P2;Temp;Humidity;BMP_temperature;BMP_pressure;BME280_temperature;BME280_humidity;BME280_pressure;Samples;Min_cycle;Max_cycle;Signal;HPM_P1;HPM_P2
2022/11/13 05:31:35;;;;;;;15.68;9.70;;;12.20;84.40;;;;;;5336432;23;20098;-79
2022/11/13 05:34:04;;;;;;;16.85;9.05;;;12.00;84.50;;;;;;4925307;29;20036;-79
2022/11/13 05:36:31;;;;;;;15.88;9.07;;;12.00;85.00;;;;;;4920444;29;20400;-79
2022/11/13 05:38:56;;;;;;;16.23;8.95;;;12.10;84.80;;;;;;4907189;29;20095;-79
2022/11/13 05:41:23;;;;;;;16.00;9.43;;;12.00;84.70;;;;;;4921055;29;20032;-79
2022/11/13 05:43:49;;;;;;;18.08;10.50;;;12.10;84.80;;;;;;4920850;29;20020;-79
2022/11/13 05:46:21;;;;;;;20.40;11.40;;;12.10;84.50;;;;;;4904252;29;20052;-79
2022/11/13 05:48:51;;;;;;;16.95;10.23;;;12.00;84.70;;;;;;4915047;29;20100;-79
2022/11/13 05:51:22;;;;;;;18.02;10.32;;;11.90;84.90;;;;;;4921137;29;20510;-79
2022/11/13 05:53:47;;;;;;;13.18;8.57;;;11.90;85.10;;;;;;4935713;29;20032;-79
2022/11/13 05:56:20;;;;;;;16.38;9.88;;;12.00;85.00;;;;;;4922346;29;20508;-79
2022/11/13 05:58:46;;;;;;;14.75;9.00;;;12.10;84.80;;;;;;4939826;29;20111;-79
2022/11/13 06:01:24;;;;;;;15.27;9.73;;;12.00;84.60;;;;;;4921410;29;20035;-79
2022/11/13 06:03:51;;;;;;;20.35;9.82;;;11.80;85.10;;;;;;4915208;29;20126;-79
2022/11/13 06:06:19;;;;;;;16.00;9.73;;;11.80;85.50;;;;;;4939633;29;20042;-79
2022/11/13 06:08:48;;;;;;;15.32;9.38;;;11.70;85.70;;;;;;4955404;29;20422;-80
2022/11/13 06:11:16;;;;;;;15.93;9.55;;;11.70;85.90;;;;;;4952056;29;20032;-79
2022/11/13 06:13:42;;;;;;;16.33;8.85;;;11.60;86.00;;;;;;4922236;29;20028;-80
2022/11/13 06:16:13;;;;;;;13.93;8.95;;;11.60;86.10;;;;;;4912024;29;20583;-80
2022/11/13 06:18:48;;;;;;;17.88;9.63;;;11.70;85.90;;;;;;4940095;29;20028;-80
2022/11/13 06:21:21;;;;;;;13.75;9.77;;;11.70;86.10;;;;;;4940765;29;20059;-80
2022/11/13 06:23:47;;;;;;;19.20;9.60;;;11.60;86.20;;;;;;4958920;29;20023;-79
2022/11/13 06:26:23;;;;;;;11.48;7.38;;;11.50;86.60;;;;;;4930944;29;20248;-80
2022/11/13 06:28:48;;;;;;;18.50;9.50;;;11.50;87.10;;;;;;4920729;29;20018;-80
2022/11/13 06:31:18;;;;;;;14.80;9.80;;;11.60;87.00;;;;;;4920813;29;20129;-80
2022/11/13 06:33:44;;;;;;;19.67;9.60;;;11.60;86.70;;;;;;4932284;29;20023;-80
2022/11/13 06:36:18;;;;;;;13.85;7.05;;;11.60;86.90;;;;;;4939792;29;20043;-79
2022/11/13 06:38:44;;;;;;;12.43;9.32;;;11.60;86.60;;;;;;4939103;29;20028;-79
2022/11/13 06:41:13;;;;;;;11.00;6.88;;;11.50;87.00;;;;;;4922552;29;20032;-79
2022/11/13 06:43:39;;;;;;;14.02;8.55;;;11.50;87.10;;;;;;4937368;29;20057;-81
2022/11/13 06:46:16;;;;;;;12.90;7.32;;;11.50;87.30;;;;;;4931939;29;20070;-84
2022/11/13 06:48:42;;;;;;;16.88;9.13;;;11.40;87.30;;;;;;4928808;29;20032;-83
2022/11/13 06:51:12;;;;;;;13.98;8.57;;;11.50;87.50;;;;;;4911633;29;20032;-82
2022/11/13 06:53:43;;;;;;;14.45;9.60;;;11.50;87.10;;;;;;4911792;29;20035;-81
2022/11/13 06:56:10;;;;;;;11.98;9.00;;;11.60;87.00;;;;;;4929793;29;20024;-82
2022/11/13 06:58:36;;;;;;;11.55;6.72;;;11.70;86.80;;;;;;4925494;29;20027;-81
2022/11/13 07:01:13;;;;;;;16.90;9.82;;;11.70;86.50;;;;;;4933205;29;20028;-83
2022/11/13 07:03:39;;;;;;;18.77;10.48;;;11.80;86.20;;;;;;4927820;29;20377;-80
2022/11/13 07:06:07;;;;;;;16.92;9.90;;;11.80;86.00;;;;;;4902215;29;20055;-77
2022/11/13 07:08:33;;;;;;;20.70;10.68;;;11.80;85.90;;;;;;4919507;29;20437;-78
2022/11/13 07:10:59;;;;;;;17.95;10.02;;;11.80;85.90;;;;;;4927536;29;20127;-79
2022/11/13 07:13:26;;;;;;;16.67;9.70;;;11.80;85.70;;;;;;4938849;29;20495;-77
2022/11/13 07:15:52;;;;;;;17.65;10.52;;;11.80;85.70;;;;;;4920989;29;20046;-78
2022/11/13 07:18:18;;;;;;;23.90;13.00;;;11.80;85.70;;;;;;4938334;29;20396;-79
2022/11/13 07:20:44;;;;;;;17.33;9.95;;;11.80;85.70;;;;;;4939147;29;20039;-78
2022/11/13 07:23:10;;;;;;;17.30;10.45;;;11.70;85.70;;;;;;4920901;29;20020;-78
2022/11/13 07:25:36;;;;;;;15.55;10.20;;;11.70;86.10;;;;;;4931785;29;20032;-84
2022/11/13 07:28:02;;;;;;;15.95;10.07;;;11.80;86.20;;;;;;4911789;29;20495;-86
2022/11/13 07:30:27;;;;;;;14.70;9.50;;;11.80;86.00;;;;;;4929120;29;20051;-80
2022/11/13 07:32:53;;;;;;;19.52;10.50;;;11.80;85.70;;;;;;4909623;29;20444;-81
2022/11/13 07:35:19;;;;;;;15.88;9.75;;;11.80;85.90;;;;;;4929276;29;20054;-83
2022/11/13 07:37:45;;;;;;;17.30;10.02;;;11.80;85.90;;;;;;4910060;29;20020;-81
2022/11/13 07:40:11;;;;;;;21.00;11.00;;;11.80;86.10;;;;;;4934932;29;20027;-84
2022/11/13 07:42:38;;;;;;;19.40;9.65;;;11.80;86.10;;;;;;4931584;29;20019;-84
2022/11/13 07:45:04;;;;;;;14.65;8.40;;;11.80;86.20;;;;;;4928843;29;20099;-84
2022/11/13 07:47:30;;;;;;;18.05;8.52;;;11.80;86.10;;;;;;4922821;29;20709;-85
2022/11/13 07:49:56;;;;;;;17.35;10.10;;;11.70;86.30;;;;;;4904441;29;20039;-84
2022/11/13 07:52:21;;;;;;;19.45;11.05;;;11.70;86.60;;;;;;4909107;29;20032;-85
2022/11/13 07:54:47;;;;;;;11.85;6.78;;;11.80;87.00;;;;;;4914103;29;20038;-85
2022/11/13 07:57:13;;;;;;;17.52;9.70;;;11.70;86.40;;;;;;4914131;29;20124;-84
2022/11/13 07:59:39;;;;;;;17.73;9.73;;;11.70;86.70;;;;;;4930076;29;20079;-85
2022/11/13 08:02:05;;;;;;;18.92;10.13;;;11.60;87.10;;;;;;4933137;29;20028;-85
2022/11/13 08:04:31;;;;;;;15.98;9.93;;;11.60;87.00;;;;;;4919030;29;20028;-84
2022/11/13 08:06:57;;;;;;;16.98;10.05;;;11.50;87.40;;;;;;4937815;29;20028;-84
2022/11/13 08:09:22;;;;;;;22.45;9.90;;;11.50;87.70;;;;;;4928424;29;20091;-85
2022/11/13 08:11:48;;;;;;;19.38;9.73;;;11.60;87.90;;;;;;4931183;29;20522;-83
2022/11/13 08:14:14;;;;;;;16.40;10.40;;;11.60;87.80;;;;;;4954405;29;20039;-84
2022/11/13 08:16:39;;;;;;;18.15;8.20;;;11.70;87.60;;;;;;4922738;29;20111;-82
2022/11/13 08:19:05;;;;;;;15.07;9.68;;;11.70;87.40;;;;;;4908484;29;20030;-86
2022/11/13 08:21:30;;;;;;;16.40;9.73;;;11.80;87.70;;;;;;4940494;29;20561;-77
2022/11/13 08:23:56;;;;;;;17.88;11.57;;;11.90;87.60;;;;;;4923550;29;20559;-79
2022/11/13 08:26:22;;;;;;;20.63;12.77;;;11.90;87.30;;;;;;4941640;29;20042;-79
2022/11/13 08:28:48;;;;;;;19.02;11.70;;;11.80;86.70;;;;;;4931861;29;20038;-79
2022/11/13 08:31:15;;;;;;;21.35;11.15;;;11.80;87.50;;;;;;4905859;29;20056;-79
2022/11/13 08:33:41;;;;;;;20.60;12.23;;;12.00;86.80;;;;;;4922326;29;20039;-79
2022/11/13 08:36:08;;;;;;;20.90;12.10;;;12.00;87.00;;;;;;4923780;29;20032;-79
2022/11/13 08:38:33;;;;;;;22.50;12.88;;;12.10;86.50;;;;;;4941842;29;20036;-79
2022/11/13 08:41:01;;;;;;;20.98;11.93;;;12.10;86.70;;;;;;4916682;29;20506;-79
2022/11/13 08:43:26;;;;;;;17.23;10.80;;;12.10;86.90;;;;;;4932291;29;20104;-79
2022/11/13 08:45:52;;;;;;;21.35;11.25;;;12.10;86.70;;;;;;4932738;29;20028;-79
2022/11/13 08:48:18;;;;;;;24.30;12.80;;;12.20;86.70;;;;;;4930731;29;20034;-79
2022/11/13 08:50:44;;;;;;;21.20;12.43;;;12.20;86.80;;;;;;4932057;29;20059;-79
2022/11/13 08:53:10;;;;;;;22.80;11.85;;;12.30;86.60;;;;;;4932362;29;20027;-79
2022/11/13 08:55:35;;;;;;;19.08;12.02;;;12.30;86.20;;;;;;4914402;29;20024;-79
2022/11/13 08:58:03;;;;;;;17.75;11.38;;;12.40;85.60;;;;;;4934354;29;20415;-79
2022/11/13 09:00:30;;;;;;;16.63;10.68;;;12.30;86.00;;;;;;4931537;29;20028;-79
2022/11/13 09:02:57;;;;;;;20.48;11.23;;;12.30;86.20;;;;;;4938714;29;20467;-79
2022/11/13 09:05:23;;;;;;;19.17;11.95;;;12.50;86.00;;;;;;4940701;29;20031;-78
2022/11/13 09:07:49;;;;;;;17.95;10.00;;;12.40;85.40;;;;;;4923568;29;20184;-78
2022/11/13 09:10:16;;;;;;;18.30;11.05;;;12.50;86.20;;;;;;4940939;29;20024;-79
2022/11/13 09:12:43;;;;;;;19.08;12.13;;;12.60;85.70;;;;;;4923577;29;20063;-79
2022/11/13 09:15:10;;;;;;;17.25;10.98;;;12.50;85.80;;;;;;4923604;29;20389;-79
2022/11/13 09:17:35;;;;;;;22.30;13.70;;;12.60;85.60;;;;;;4924079;29;20019;-79
2022/11/13 09:20:01;;;;;;;20.58;12.77;;;12.60;85.90;;;;;;4923630;29;20527;-79
2022/11/13 09:22:27;;;;;;;19.95;11.68;;;12.50;85.70;;;;;;4906432;29;20028;-79
2022/11/13 09:24:52;;;;;;;21.48;12.73;;;12.50;85.80;;;;;;4940890;29;20400;-79
2022/11/13 09:27:18;;;;;;;18.58;11.65;;;12.60;86.20;;;;;;4930725;29;20447;-78
2022/11/13 09:29:43;;;;;;;18.25;11.07;;;12.70;85.80;;;;;;4929800;29;20024;-79
2022/11/13 09:32:09;;;;;;;18.77;10.88;;;12.40;85.60;;;;;;4913134;29;20071;-79
2022/11/13 09:34:35;;;;;;;18.70;11.23;;;12.30;86.20;;;;;;4930738;29;20036;-79
2022/11/13 09:37:01;;;;;;;20.55;11.82;;;12.30;86.60;;;;;;4923994;29;20035;-78
2022/11/13 09:39:27;;;;;;;27.58;15.10;;;12.50;86.50;;;;;;4926360;29;20030;-79
2022/11/13 09:42:12;;;;;;;16.88;10.65;;;12.60;86.40;;;;;;4956092;29;20035;-79
2022/11/13 09:44:46;;;;;;;19.38;11.80;;;12.70;85.90;;;;;;4952017;29;20032;-78
2022/11/13 09:47:26;;;;;;;18.65;11.50;;;12.80;86.00;;;;;;4923701;29;20039;-78
2022/11/13 09:50:11;;;;;;;19.75;11.93;;;12.90;86.00;;;;;;4940511;29;20039;-78
2022/11/13 09:52:41;;;;;;;18.70;10.88;;;13.00;85.40;;;;;;4919547;29;20050;-79
2022/11/13 09:55:16;;;;;;;19.10;12.40;;;13.00;85.00;;;;;;4940304;29;20032;-79
2022/11/13 09:57:53;;;;;;;17.02;12.40;;;12.90;85.50;;;;;;4953265;29;20488;-78
2022/11/13 10:00:20;;;;;;;18.33;10.55;;;12.90;85.50;;;;;;4940257;29;20039;-78
2022/11/13 10:02:56;;;;;;;17.42;11.18;;;12.90;85.70;;;;;;4936859;29;20024;-79
2022/11/13 10:05:27;;;;;;;20.42;11.65;;;12.80;86.00;;;;;;4912588;29;20036;-81
2022/11/13 10:08:05;;;;;;;21.85;11.65;;;12.80;85.90;;;;;;4935473;29;20058;-79
2022/11/13 10:10:36;;;;;;;17.52;12.13;;;12.80;86.20;;;;;;4931136;29;20023;-77
2022/11/13 10:13:03;;;;;;;21.10;12.88;;;12.80;86.70;;;;;;4929134;29;20460;-82
2022/11/13 10:15:29;;;;;;;21.90;12.05;;;12.90;86.70;;;;;;4918500;29;20035;-78
2022/11/13 10:18:01;;;;;;;22.95;12.82;;;12.90;86.60;;;;;;4912337;29;20040;-79
2022/11/13 10:20:42;;;;;;;19.77;11.68;;;13.00;86.70;;;;;;4933160;29;20036;-78
2022/11/13 10:23:17;;;;;;;18.15;10.90;;;13.20;86.30;;;;;;4928271;29;20024;-82
2022/11/13 10:25:44;;;;;;;22.65;12.45;;;13.30;86.10;;;;;;4914303;29;20032;-80
2022/11/13 10:28:17;;;;;;;22.38;14.38;;;13.40;85.80;;;;;;4938334;29;20031;-82
2022/11/13 10:30:44;;;;;;;15.98;9.15;;;13.50;85.60;;;;;;4935035;29;21175;-84
2022/11/13 10:33:16;;;;;;;19.80;11.23;;;13.50;85.50;;;;;;4916962;29;20667;-84
2022/11/13 10:35:56;;;;;;;16.27;9.88;;;13.50;85.30;;;;;;4938513;29;20078;-85
2022/11/13 10:38:39;;;;;;;19.35;11.40;;;13.60;85.20;;;;;;4915779;29;20507;-85
2022/11/13 10:41:13;;;;;;;17.77;10.90;;;13.70;85.10;;;;;;4929038;29;20059;-88
2022/11/13 10:43:53;;;;;;;17.30;10.98;;;13.90;85.00;;;;;;4931708;29;20028;-84
2022/11/13 10:46:21;;;;;;;15.95;9.88;;;14.00;84.90;;;;;;4936891;29;20031;-82
2022/11/13 10:48:47;;;;;;;17.13;12.05;;;14.00;84.80;;;;;;4917388;29;20047;-90
2022/11/13 10:51:28;;;;;;;16.30;10.65;;;14.00;84.80;;;;;;4928174;29;20032;-89
2022/11/13 10:53:55;;;;;;;19.38;11.27;;;14.00;85.00;;;;;;4912740;29;20032;-84
2022/11/13 10:56:28;;;;;;;15.20;9.07;;;14.10;84.90;;;;;;4934564;29;20030;-86
2022/11/13 10:59:09;;;;;;;14.93;10.50;;;14.20;84.70;;;;;;4927907;29;20024;-85
2022/11/13 11:01:35;;;;;;;13.40;9.93;;;14.20;84.70;;;;;;4934216;29;20038;-88
2022/11/13 11:04:05;;;;;;;17.75;10.38;;;14.20;84.80;;;;;;4933476;29;20032;-87
2022/11/13 11:06:33;;;;;;;12.48;9.45;;;14.20;85.00;;;;;;4931285;29;20028;-88
2022/11/13 11:09:28;;;;;;;15.05;9.82;;;14.30;84.80;;;;;;4929052;29;20028;-87
2022/11/13 11:12:19;;;;;;;14.90;9.15;;;14.30;84.80;;;;;;4912918;29;20141;-83
2022/11/13 11:15:00;;;;;;;16.60;9.15;;;14.30;84.80;;;;;;4920566;29;20035;-80
2022/11/13 11:17:29;;;;;;;;;;;14.50;84.80;;;;;;4930831;29;20067;-81
2022/11/13 11:20:00;;;;;;;11.93;8.07;;;14.50;84.30;;;;;;4935482;29;20379;-82
2022/11/13 11:22:29;;;;;;;14.13;7.65;;;14.50;84.30;;;;;;4911480;29;20032;-81
2022/11/13 11:24:57;;;;;;;13.43;9.30;;;14.60;84.30;;;;;;4930627;29;20039;-82
2022/11/13 11:27:59;;;;;;;15.18;9.25;;;14.60;84.40;;;;;;4931295;29;20121;-83
2022/11/13 11:30:28;;;;;;;9.55;6.95;;;14.70;84.20;;;;;;4877189;29;20391;-86
2022/11/13 11:33:00;;;;;;;14.55;9.25;;;14.80;83.60;;;;;;4931951;29;20799;-81
2022/11/13 11:35:46;;;;;;;14.27;9.18;;;14.80;83.90;;;;;;4929963;29;20031;-85
2022/11/13 11:38:41;;;;;;;14.93;8.30;;;14.80;83.90;;;;;;4927184;29;20105;-78
2022/11/13 11:41:16;;;;;;;11.40;8.60;;;14.80;83.60;;;;;;4888707;29;20068;-86
2022/11/13 11:43:47;;;;;;;12.93;8.38;;;14.90;83.60;;;;;;4916124;29;20024;-82
2022/11/13 11:46:16;;;;;;;12.00;8.43;;;15.00;83.80;;;;;;4936356;29;20035;-82
2022/11/13 11:48:42;;;;;;;13.02;8.63;;;15.10;83.70;;;;;;4921196;29;20023;-87
2022/11/13 11:51:37;;;;;;;11.85;7.63;;;15.20;83.50;;;;;;4930621;29;20032;-86
2022/11/13 11:54:24;;;;;;;10.73;7.32;;;15.20;83.20;;;;;;4925901;29;20059;-87
2022/11/13 11:56:54;;;;;;;10.68;7.60;;;15.30;83.20;;;;;;4917726;29;20024;-84
2022/11/13 11:59:45;;;;;;;12.35;8.63;;;15.30;83.00;;;;;;4917817;29;20040;-78
2022/11/13 12:02:29;;;;;;;10.18;7.03;;;15.40;83.10;;;;;;4919308;29;20038;-88
2022/11/13 12:05:19;;;;;;;11.52;7.43;;;15.50;82.90;;;;;;4910373;29;20035;-88
2022/11/13 12:08:00;;;;;;;12.45;8.35;;;15.50;82.60;;;;;;4916765;29;20145;-88
2022/11/13 12:10:25;;;;;;;10.57;7.38;;;15.60;83.00;;;;;;4926638;29;20091;-87
2022/11/13 12:12:54;;;;;;;13.57;7.65;;;15.60;82.50;;;;;;4923209;29;20036;-89
2022/11/13 12:15:28;;;;;;;14.13;7.63;;;15.60;82.60;;;;;;4918286;29;20036;-84
2022/11/13 12:18:24;;;;;;;12.15;7.53;;;15.60;82.50;;;;;;4915288;29;20065;-88
2022/11/13 12:20:56;;;;;;;11.45;7.03;;;15.70;82.40;;;;;;4929319;29;20035;-86
2022/11/13 12:23:29;;;;;;;9.48;6.93;;;15.80;82.30;;;;;;4922491;29;20110;-93
2022/11/13 12:26:21;;;;;;;10.32;7.70;;;15.80;82.60;;;;;;4912600;29;20032;-82
2022/11/13 12:28:52;;;;;;;11.65;7.28;;;15.80;82.20;;;;;;4919010;29;20115;-83
2022/11/13 12:31:27;;;;;;;11.73;7.03;;;15.90;81.80;;;;;;4934383;29;20055;-86
2022/11/13 12:34:06;;;;;;;11.57;7.20;;;15.90;81.50;;;;;;4912315;29;20554;-80
2022/11/13 12:36:32;;;;;;;10.17;6.57;;;15.80;81.30;;;;;;4930389;29;20060;-85
2022/11/13 12:39:11;;;;;;;10.13;7.70;;;15.80;81.10;;;;;;4910372;29;20032;-80
2022/11/13 12:41:49;;;;;;;13.57;6.97;;;15.90;81.50;;;;;;4912595;29;20509;-80
2022/11/13 12:44:21;;;;;;;12.68;7.72;;;16.00;81.50;;;;;;4928393;29;20481;-84
2022/11/13 12:46:48;;;;;;;12.13;7.80;;;16.00;81.60;;;;;;4913689;29;20027;-88
2022/11/13 12:49:33;;;;;;;11.45;7.32;;;16.00;81.70;;;;;;4922607;29;20668;-89
2022/11/13 12:52:15;;;;;;;12.27;7.55;;;16.00;81.00;;;;;;4931651;29;20027;-88
2022/11/13 12:54:41;;;;;;;12.00;7.65;;;16.00;80.70;;;;;;4913380;29;20078;-90
2022/11/13 12:57:12;;;;;;;11.27;7.63;;;16.10;80.60;;;;;;4926922;29;20031;-88
2022/11/13 12:59:45;;;;;;;11.18;6.75;;;16.10;80.20;;;;;;4938234;28;20030;-89
2022/11/13 13:02:40;;;;;;;10.00;7.70;;;16.00;79.80;;;;;;4915468;29;20071;-87
2022/11/13 13:05:26;;;;;;;10.88;6.97;;;16.00;80.00;;;;;;4908637;29;20067;-85
2022/11/13 13:08:07;;;;;;;12.88;7.97;;;16.10;80.20;;;;;;4918783;29;20036;-86
2022/11/13 13:10:43;;;;;;;10.63;7.13;;;16.10;80.40;;;;;;4927138;29;20036;-88
2022/11/13 13:13:38;;;;;;;9.65;7.20;;;16.10;79.70;;;;;;4910162;29;20231;-86
2022/11/13 13:16:07;;;;;;;9.52;6.30;;;16.10;79.90;;;;;;4923325;29;20078;-86
2022/11/13 13:18:38;;;;;;;11.50;7.90;;;16.20;80.10;;;;;;4911921;29;20471;-87
2022/11/13 13:21:13;;;;;;;12.10;6.20;;;16.20;79.90;;;;;;4918400;29;20024;-87
2022/11/13 13:23:44;;;;;;;11.10;7.22;;;16.20;79.40;;;;;;4929750;29;20050;-86
2022/11/13 13:26:20;;;;;;;12.40;7.03;;;16.20;79.80;;;;;;4929563;29;20028;-85
2022/11/13 13:28:51;;;;;;;10.30;7.43;;;16.20;79.40;;;;;;4912262;29;20036;-85
2022/11/13 13:31:36;;;;;;;10.60;6.20;;;16.20;79.10;;;;;;4937095;29;20515;-85
2022/11/13 13:34:14;;;;;;;12.80;7.28;;;16.20;79.60;;;;;;4936464;29;20417;-84
2022/11/13 13:36:50;;;;;;;11.68;6.75;;;16.30;79.40;;;;;;4931934;29;20028;-83
2022/11/13 13:39:25;;;;;;;11.88;7.32;;;16.30;79.10;;;;;;4937249;29;20023;-83
2022/11/13 13:41:57;;;;;;;9.07;6.15;;;16.30;79.30;;;;;;4918999;29;20032;-84
2022/11/13 13:44:52;;;;;;;9.80;6.85;;;16.30;79.40;;;;;;4921571;29;20120;-79
2022/11/13 13:47:27;;;;;;;11.27;7.60;;;16.30;79.50;;;;;;4924717;29;20051;-86
2022/11/13 13:49:53;;;;;;;8.45;5.97;;;16.30;79.20;;;;;;4930697;29;20055;-83
2022/11/13 13:52:29;;;;;;;10.15;6.63;;;16.30;78.40;;;;;;4931090;29;20595;-86
2022/11/13 13:54:56;;;;;;;9.48;6.85;;;16.20;78.90;;;;;;4922925;29;20044;-89
2022/11/13 13:57:22;;;;;;;10.40;6.80;;;16.20;79.00;;;;;;4926977;29;20043;-85
2022/11/13 13:59:49;;;;;;;10.10;6.90;;;16.20;79.30;;;;;;4910398;29;21767;-85
2022/11/13 14:02:17;;;;;;;8.05;6.03;;;16.20;79.20;;;;;;4929451;29;20039;-86
2022/11/13 14:04:45;;;;;;;11.55;6.60;;;16.30;79.30;;;;;;4929226;29;20028;-85
2022/11/13 14:07:27;;;;;;;8.93;6.68;;;16.30;79.00;;;;;;4917266;29;20672;-85
2022/11/13 14:10:17;;;;;;;10.20;6.47;;;16.20;78.90;;;;;;4933245;29;20572;-84
2022/11/13 14:12:44;;;;;;;10.15;6.38;;;16.20;78.90;;;;;;4926760;29;20043;-82
2022/11/13 14:15:32;;;;;;;9.07;6.65;;;16.20;78.90;;;;;;4929347;29;20119;-85
2022/11/13 14:18:15;;;;;;;9.13;6.55;;;16.20;78.70;;;;;;4916669;29;20417;-83
2022/11/13 14:20:57;;;;;;;11.02;7.40;;;16.20;78.80;;;;;;4912568;29;20038;-85
2022/11/13 14:23:34;;;;;;;9.82;6.03;;;16.20;79.20;;;;;;4915149;29;20035;-83
2022/11/13 14:26:01;;;;;;;10.70;7.30;;;16.30;78.60;;;;;;4925716;29;20031;-83
2022/11/13 14:28:30;;;;;;;11.15;6.25;;;16.30;78.90;;;;;;4911928;29;20055;-85
2022/11/13 14:31:06;;;;;;;11.45;6.70;;;16.30;79.00;;;;;;4929577;29;20111;-84
2022/11/13 14:33:35;;;;;;;11.25;6.47;;;16.30;79.10;;;;;;4929925;29;20067;-83
2022/11/13 14:36:02;;;;;;;11.35;7.07;;;16.30;78.80;;;;;;4908633;29;20691;-85
2022/11/13 14:38:31;;;;;;;8.65;6.43;;;16.30;78.70;;;;;;4932361;29;20051;-86
2022/11/13 14:40:58;;;;;;;9.77;6.93;;;16.30;78.50;;;;;;4929051;29;20079;-84
2022/11/13 14:43:29;;;;;;;9.30;6.28;;;16.30;79.00;;;;;;4916232;29;20036;-83
2022/11/13 14:46:21;;;;;;;10.38;6.57;;;16.30;79.10;;;;;;4922318;29;20462;-84
2022/11/13 14:48:56;;;;;;;11.07;6.78;;;16.30;79.00;;;;;;4904685;29;20042;-86
2022/11/13 14:51:30;;;;;;;10.13;7.22;;;16.30;78.70;;;;;;4934252;29;20031;-85
2022/11/13 14:54:04;;;;;;;11.57;7.18;;;16.30;79.40;;;;;;4930106;29;20066;-84
2022/11/13 14:56:41;;;;;;;10.30;7.57;;;16.30;79.20;;;;;;4909635;29;20089;-83
2022/11/13 14:59:23;;;;;;;11.05;6.55;;;16.30;78.90;;;;;;4912739;29;21527;-83
2022/11/13 15:01:58;;;;;;;9.48;6.53;;;16.30;79.10;;;;;;4908910;29;20027;-83
2022/11/13 15:04:24;;;;;;;10.20;6.25;;;16.20;79.00;;;;;;4925445;29;20032;-81
2022/11/13 15:06:54;;;;;;;8.68;6.78;;;16.20;79.00;;;;;;4904608;29;20032;-84
2022/11/13 15:09:22;;;;;;;10.40;6.63;;;16.20;79.40;;;;;;4910474;29;20032;-83
2022/11/13 15:11:48;;;;;;;10.02;6.90;;;16.20;79.60;;;;;;4915252;29;20043;-84
2022/11/13 15:14:19;;;;;;;10.20;6.80;;;16.20;79.40;;;;;;4928775;29;20534;-83
2022/11/13 15:16:46;;;;;;;11.25;7.18;;;16.20;79.40;;;;;;4924731;29;20036;-84
2022/11/13 15:19:36;;;;;;;10.77;7.60;;;16.20;79.30;;;;;;4904594;29;20025;-84
2022/11/13 15:22:02;;;;;;;9.27;6.83;;;16.20;79.30;;;;;;4930293;29;20032;-85
2022/11/13 15:24:27;;;;;;;10.68;7.05;;;16.10;79.50;;;;;;4929348;29;20135;-85
2022/11/13 15:26:53;;;;;;;11.05;7.13;;;16.10;79.40;;;;;;4909227;29;20119;-84
2022/11/13 15:29:19;;;;;;;10.63;7.10;;;16.10;79.60;;;;;;4931231;29;20027;-84
2022/11/13 15:31:46;;;;;;;10.60;7.40;;;16.10;79.70;;;;;;4925299;29;20076;-83
2022/11/13 15:34:14;;;;;;;11.35;7.50;;;16.10;79.90;;;;;;4929237;29;20028;-81
2022/11/13 15:36:41;;;;;;;11.23;6.97;;;16.10;79.90;;;;;;4907233;29;20055;-81
2022/11/13 15:39:07;;;;;;;14.02;8.50;;;16.00;80.10;;;;;;4934330;29;20067;-79
2022/11/13 15:41:35;;;;;;;13.30;7.53;;;16.00;80.10;;;;;;4920380;29;20032;-87
2022/11/13 15:44:03;;;;;;;9.73;7.22;;;16.00;80.20;;;;;;4907513;29;20028;-86
2022/11/13 15:46:29;;;;;;;11.52;7.28;;;15.90;80.40;;;;;;4932879;29;20036;-79
2022/11/13 15:48:54;;;;;;;14.27;7.45;;;15.80;80.40;;;;;;4924745;29;20039;-85
2022/11/13 15:51:28;;;;;;;11.68;7.13;;;15.80;80.50;;;;;;4927750;29;20056;-88
2022/11/13 15:53:58;;;;;;;10.70;7.50;;;15.70;80.80;;;;;;4909499;29;20024;-86
2022/11/13 15:56:27;;;;;;;12.40;7.63;;;15.70;80.70;;;;;;4928296;29;20051;-89
2022/11/13 15:58:53;;;;;;;15.55;7.55;;;15.70;81.00;;;;;;4922165;29;20020;-83
2022/11/13 16:01:19;;;;;;;12.90;7.60;;;15.70;81.10;;;;;;4910290;29;20038;-84
2022/11/13 16:03:45;;;;;;;15.30;7.63;;;15.60;81.20;;;;;;4927092;29;20091;-83
2022/11/13 16:06:21;;;;;;;12.68;8.18;;;15.50;81.30;;;;;;4910863;29;20551;-84
2022/11/13 16:08:47;;;;;;;13.23;8.50;;;15.40;81.70;;;;;;4912713;29;20120;-86
2022/11/13 16:11:19;;;;;;;13.63;8.30;;;15.40;81.80;;;;;;4930548;29;20034;-84
2022/11/13 16:13:45;;;;;;;11.88;7.95;;;15.30;82.00;;;;;;4925927;29;20055;-84
2022/11/13 16:16:22;;;;;;;12.45;7.47;;;15.20;82.20;;;;;;4930862;29;20032;-84
2022/11/13 16:18:49;;;;;;;13.43;8.82;;;15.20;82.30;;;;;;4908947;29;20047;-84
2022/11/13 16:21:16;;;;;;;13.25;8.40;;;15.20;82.40;;;;;;4904793;29;20083;-84
2022/11/13 16:23:42;;;;;;;10.65;8.13;;;15.20;82.40;;;;;;4916051;29;20031;-83
2022/11/13 16:26:22;;;;;;;14.70;8.90;;;15.10;82.40;;;;;;4916503;29;20051;-83
2022/11/13 16:28:52;;;;;;;14.70;9.20;;;15.00;82.50;;;;;;4933751;29;20035;-84
2022/11/13 16:31:20;;;;;;;11.60;7.60;;;14.90;82.70;;;;;;4932573;29;20563;-83
2022/11/13 16:33:46;;;;;;;17.02;10.38;;;14.90;83.00;;;;;;4906740;29;20063;-84
2022/11/13 16:36:20;;;;;;;16.35;10.77;;;14.90;83.00;;;;;;4920409;29;20028;-83
2022/11/13 16:38:46;;;;;;;14.98;10.65;;;14.80;83.20;;;;;;4933104;29;20038;-83
2022/11/13 16:41:15;;;;;;;18.83;10.68;;;14.80;83.20;;;;;;4932450;29;20069;-83
2022/11/13 16:43:44;;;;;;;17.95;11.90;;;14.80;83.30;;;;;;4933111;29;20091;-83
2022/11/13 16:46:30;;;;;;;19.42;10.70;;;14.70;83.40;;;;;;4933293;29;20039;-82
2022/11/13 16:48:56;;;;;;;18.10;10.80;;;14.70;83.50;;;;;;4930433;29;20063;-82
2022/11/13 16:51:21;;;;;;;19.17;12.32;;;14.70;83.70;;;;;;4934762;29;20110;-82
2022/11/13 16:53:47;;;;;;;23.15;12.45;;;14.60;83.80;;;;;;4931584;29;20554;-82
2022/11/13 16:56:27;;;;;;;21.40;12.70;;;14.50;84.00;;;;;;4916325;29;20758;-82
2022/11/13 16:58:57;;;;;;;30.40;17.00;;;14.50;84.10;;;;;;4921301;29;20055;-82
2022/11/13 17:01:24;;;;;;;33.53;18.58;;;14.40;84.10;;;;;;4937655;29;20561;-82
2022/11/13 17:03:52;;;;;;;28.65;15.23;;;14.40;84.30;;;;;;4919441;29;20063;-84
2022/11/13 17:06:32;;;;;;;24.77;14.48;;;14.30;84.40;;;;;;4931980;29;20032;-87
2022/11/13 17:09:02;;;;;;;22.17;14.32;;;14.30;84.40;;;;;;4920129;29;20055;-87
2022/11/13 17:11:29;;;;;;;;;;;14.20;84.80;;;;;;4917899;29;20039;-87
2022/11/13 17:13:57;;;;;;;21.25;13.32;;;14.20;84.70;;;;;;4926003;29;19923;-87
2022/11/13 17:16:24;;;;;;;17.98;11.45;;;14.20;84.70;;;;;;4917332;29;20036;-87
2022/11/13 17:18:53;;;;;;;23.15;14.57;;;14.10;84.70;;;;;;4935927;29;20028;-88
2022/11/13 17:21:21;;;;;;;20.13;13.52;;;14.20;84.60;;;;;;4919886;29;20778;-81
2022/11/13 17:23:46;;;;;;;24.10;13.70;;;14.20;84.50;;;;;;4926180;29;20464;-84
2022/11/13 17:26:12;;;;;;;21.83;13.35;;;14.10;84.70;;;;;;4913691;29;20055;-84
2022/11/13 17:28:38;;;;;;;22.52;13.38;;;14.00;84.70;;;;;;4923640;29;20024;-83
2022/11/13 17:31:09;;;;;;;26.83;15.35;;;13.90;85.00;;;;;;4931864;29;20056;-85
2022/11/13 17:33:35;;;;;;;20.42;11.55;;;13.90;85.00;;;;;;4923150;29;20039;-85
2022/11/13 17:36:01;;;;;;;19.38;13.40;;;13.80;85.00;;;;;;4919611;29;20038;-86
2022/11/13 17:38:27;;;;;;;25.88;15.02;;;13.80;85.20;;;;;;4936591;29;20479;-82
2022/11/13 17:40:53;;;;;;;24.30;13.75;;;13.90;85.10;;;;;;4938834;29;20114;-76
2022/11/13 17:43:22;;;;;;;23.30;13.52;;;13.80;85.00;;;;;;4935833;29;20024;-75
2022/11/13 17:45:50;;;;;;;21.15;11.88;;;13.80;85.00;;;;;;4938938;29;20028;-76
2022/11/13 17:48:16;;;;;;;28.38;15.55;;;13.70;84.90;;;;;;4935779;29;20043;-76
2022/11/13 17:50:42;;;;;;;22.02;14.68;;;13.80;85.20;;;;;;4931991;29;20034;-76
2022/11/13 17:53:07;;;;;;;22.42;12.98;;;13.70;85.20;;;;;;4932883;29;20123;-76
2022/11/13 17:55:33;;;;;;;22.20;13.15;;;13.70;85.20;;;;;;4929147;29;20061;-76
2022/11/13 17:58:00;;;;;;;23.25;18.55;;;13.70;85.30;;;;;;4913361;29;20032;-77
2022/11/13 18:00:25;;;;;;;20.00;14.35;;;13.60;85.30;;;;;;4921028;29;20095;-76
2022/11/13 18:02:51;;;;;;;18.40;11.68;;;13.50;85.40;;;;;;4916142;29;20024;-77
2022/11/13 18:05:19;;;;;;;25.10;13.85;;;13.50;85.40;;;;;;4936781;29;20034;-81
2022/11/13 18:07:45;;;;;;;22.00;14.00;;;13.40;85.40;;;;;;4911961;29;20104;-79
2022/11/13 18:10:10;;;;;;;20.20;12.18;;;13.50;85.60;;;;;;4895645;29;20345;-79
2022/11/13 18:12:36;;;;;;;22.27;13.15;;;13.40;85.40;;;;;;4932482;29;20028;-83
2022/11/13 18:15:02;;;;;;;27.98;14.45;;;13.50;85.30;;;;;;4930893;29;20040;-78
2022/11/13 18:17:30;;;;;;;20.98;12.52;;;13.50;85.20;;;;;;4929352;29;20035;-77
2022/11/13 18:19:56;;;;;;;20.17;13.02;;;13.50;84.90;;;;;;4927395;29;20039;-78
2022/11/13 18:22:21;;;;;;;26.35;14.95;;;13.50;85.00;;;;;;4932537;29;20035;-78